MSC Orchestra — 3EJF3 — position and weather

sailwx.info

Track history (hours):
 
Tides and Currents Weather Stations Pressure Air Temp Water Temp Dewpoint Dewpoint Depression Visibility Wind Speed Wind Dir Waves Ship Positions

MSC Orchestra

Last reported at 2018-Oct-22 07:37 UTC. Time now 2018-Oct-22 22:33 UTC.
Position N 38°54' E 003°13'.

Length 294 m; draft 7.8 m.

Type: Ship. MMSI: 372497000.

Date/timePositionNaut miles runAvg speedWind from/ knotsBaromVisibWave heightAir tempDewpointWater temp
2018-Oct-22 07:37N 38°54' E 003°13'322.2
2018-Oct-22 07:30N 38°52' E 003°10'18921.5
2018-Oct-21 22:42N 37°16' W 000°17'2221.6
2018-Oct-21 21:42N 37°05' W 000°40'22510.6
2018-Oct-21 00:28N 36°04' W 005°11'717.0
2018-Oct-21 00:03N 36°01' W 005°18'119.5
2018-Oct-21 00:00N 36°00' W 005°19'1019.9
2018-Oct-20 23:30N 35°56' W 005°31'1320.5
2018-Oct-20 22:52N 35°54' W 005°46'921.4
2018-Oct-20 22:28N 35°53' W 005°57'1421.1
2018-Oct-20 21:49N 35°52' W 006°14'  
2018-Oct-18 16:10N 28°38' W 016°06'218.6
2018-Oct-18 16:02N 28°35' W 016°06'018.4
2018-Oct-18 16:00N 28°35' W 016°06'714.6
2018-Oct-18 15:30N 28°29' W 016°10'4 9.8
2018-Oct-18 15:03N 28°28' W 016°15'0 0.9
2018-Oct-18 15:00N 28°28' W 016°15'0 0.0
2018-Oct-18 14:29N 28°28' W 016°15'0 0.0
2018-Oct-18 13:59N 28°28' W 016°15'0 0.0
2018-Oct-18 13:29N 28°28' W 016°15'0 0.0
2018-Oct-18 13:01N 28°28' W 016°15'0 0.0
2018-Oct-18 12:58N 28°28' W 016°15'0 0.0
2018-Oct-18 12:28N 28°28' W 016°15'0 0.0
2018-Oct-18 12:01N 28°28' W 016°15'0 0.0
2018-Oct-18 11:55N 28°28' W 016°15'0 0.0
2018-Oct-18 11:28N 28°28' W 016°15'0 0.0
2018-Oct-18 11:01N 28°28' W 016°15'0 0.0
2018-Oct-18 10:30N 28°28' W 016°15'0 0.0
2018-Oct-18 09:57N 28°28' W 016°15'0 0.0
2018-Oct-18 09:30N 28°28' W 016°15'0 0.0
2018-Oct-18 08:57N 28°28' W 016°15'0 0.0
2018-Oct-18 08:29N 28°28' W 016°15'0 0.0
2018-Oct-18 08:02N 28°28' W 016°15'0 0.0
2018-Oct-18 07:56N 28°28' W 016°15'0 0.0
2018-Oct-18 07:29N 28°28' W 016°15'0 0.0
2018-Oct-18 07:02N 28°28' W 016°15'0 0.0
2018-Oct-18 06:59N 28°28' W 016°15'0 0.0
2018-Oct-18 06:31N 28°28' W 016°15'1 2.4
2018-Oct-18 06:03N 28°29' W 016°13'0 7.1
2018-Oct-18 06:01N 28°29' W 016°13'714.2
2018-Oct-18 05:30N 28°30' W 016°05'817.8
2018-Oct-18 05:03N 28°35' W 015°58'116.9
2018-Oct-18 05:00N 28°36' W 015°57'714.5
2018-Oct-18 04:30N 28°40' W 015°50'614.4
2018-Oct-18 04:03N 28°44' W 015°45'114.5
2018-Oct-18 04:00N 28°44' W 015°44'714.4
2018-Oct-18 03:30N 28°48' W 015°37'614.3
2018-Oct-18 03:03N 28°52' W 015°31'114.3
2018-Oct-18 03:00N 28°53' W 015°31'714.2
2018-Oct-18 02:30N 28°57' W 015°24'614.2
2018-Oct-18 02:03N 29°01' W 015°18'114.1
2018-Oct-18 02:00N 29°01' W 015°18'714.2
2018-Oct-18 01:30N 29°06' W 015°11'2214.4
2018-Oct-17 23:57N 29°19' W 014°51'714.2
2018-Oct-17 23:29N 29°23' W 014°45'2914.5
2018-Oct-17 21:28N 29°41' W 014°18'1317.7
2018-Oct-17 20:45N 29°48' W 014°06'717.6
2018-Oct-17 20:20N 29°53' W 013°60'1217.8
2018-Oct-17 19:39N 30°00' W 013°48'1217.7
2018-Oct-17 18:59N 30°07' W 013°37'53511.1
2018-Oct-15 18:39N 35°57' W 005°35'318.4
2018-Oct-15 18:30N 35°58' W 005°32'818.1
2018-Oct-15 18:03N 36°00' W 005°23'117.6
2018-Oct-15 18:00N 36°00' W 005°22'917.5
2018-Oct-15 17:30N 36°02' W 005°11'21219.4
2018-Oct-15 06:33N 37°16' W 001°03'120.9
2018-Oct-15 06:30N 37°16' W 001°02'1020.9
2018-Oct-15 06:02N 37°22' W 000°51'021.3
2018-Oct-15 06:00N 37°22' W 000°51'1121.3
2018-Oct-15 05:30N 37°29' W 000°41'1021.6
2018-Oct-15 05:03N 37°36' W 000°32'121.2
2018-Oct-15 05:00N 37°37' W 000°31'1121.3
2018-Oct-15 04:30N 37°46' W 000°24'1021.6
2018-Oct-15 04:03N 37°54' W 000°17'121.7
2018-Oct-15 04:00N 37°55' W 000°16'1121.7
2018-Oct-15 03:30N 38°04' W 000°09'19720.8
2018-Oct-14 18:02N 40°56' E 001°56'321.1
2018-Oct-14 17:53N 40°59' E 001°58'820.8
2018-Oct-14 17:30N 41°06' E 002°03'920.3
2018-Oct-14 17:03N 41°14' E 002°08'119.8
2018-Oct-14 17:00N 41°15' E 002°09'712.6
2018-Oct-14 16:29N 41°21' E 002°10'0 0.3
2018-Oct-14 16:03N 41°21' E 002°10'0 0.0
2018-Oct-14 15:54N 41°21' E 002°10'0 0.0
2018-Oct-14 15:30N 41°21' E 002°10'0 0.0
2018-Oct-14 14:57N 41°21' E 002°10'0 0.0
2018-Oct-14 14:02N 41°21' E 002°10'0 0.0
2018-Oct-14 13:56N 41°21' E 002°10'0 0.0
2018-Oct-14 13:26N 41°21' E 002°10'0 0.0
2018-Oct-14 13:02N 41°21' E 002°10'0 0.0
2018-Oct-14 12:56N 41°21' E 002°10'0 0.0
2018-Oct-14 12:26N 41°21' E 002°10'0 0.0
2018-Oct-14 12:01N 41°21' E 002°10'0 0.0
2018-Oct-14 11:52N 41°21' E 002°10'0 0.0
2018-Oct-14 11:28N 41°21' E 002°10'2 0.4
2018-Oct-14 05:33N 41°19' E 002°10'1 8.6
2018-Oct-14 05:29N 41°19' E 002°10'1211.5
2018-Oct-14 04:27N 41°20' E 002°26'714.4
2018-Oct-14 03:59N 41°24' E 002°34'15614.4
2018-Oct-13 17:06N 43°12' E 005°06'114.2
2018-Oct-13 17:00N 43°13' E 005°07'814.2
2018-Oct-13 16:27N 43°19' E 005°15'1 0.1
2018-Oct-13 04:59N 43°19' E 005°17'611.3
2018-Oct-13 04:30N 43°14' E 005°17'6612.5
2018-Oct-12 23:15N 43°05' E 006°46'314.7
2018-Oct-12 23:03N 43°06' E 006°49'114.6
2018-Oct-12 23:01N 43°06' E 006°50'714.7
2018-Oct-12 22:30N 43°10' E 006°59'714.8
2018-Oct-12 22:03N 43°13' E 007°07'115.1
2018-Oct-12 22:00N 43°13' E 007°08'815.1
2018-Oct-12 21:30N 43°16' E 007°17'715.4
2018-Oct-12 21:03N 43°20' E 007°26'115.2
2018-Oct-12 21:00N 43°20' E 007°27'815.1
2018-Oct-12 20:30N 43°24' E 007°36'715.1
2018-Oct-12 20:03N 43°27' E 007°44'118.1
2018-Oct-12 20:00N 43°27' E 007°45'918.1
2018-Oct-12 19:31N 43°31' E 007°56'818.2
2018-Oct-12 19:04N 43°36' E 008°06'118.5
2018-Oct-12 19:01N 43°36' E 008°07'918.5
2018-Oct-12 18:30N 43°42' E 008°17'818.6
2018-Oct-12 18:03N 43°49' E 008°24'118.8
2018-Oct-12 18:01N 43°49' E 008°25'918.6
2018-Oct-12 17:31N 43°57' E 008°32'818.1
2018-Oct-12 17:03N 44°04' E 008°38'117.9
2018-Oct-12 17:00N 44°05' E 008°39'918.3
2018-Oct-12 16:30N 44°12' E 008°46'818.5
2018-Oct-12 16:03N 44°19' E 008°53'118.2
2018-Oct-12 16:00N 44°20' E 008°54'510.0
2018-Oct-12 15:30N 44°25' E 008°55'0 0.1
2018-Oct-12 15:01N 44°25' E 008°55'0 0.0
2018-Oct-12 14:58N 44°25' E 008°55'0 0.0
2018-Oct-12 14:28N 44°25' E 008°55'0 0.0
2018-Oct-12 13:58N 44°25' E 008°55'0 0.0
2018-Oct-12 13:27N 44°25' E 008°55'0 0.0
2018-Oct-12 13:03N 44°25' E 008°55'0 0.0
2018-Oct-12 13:00N 44°25' E 008°55'0 0.0
2018-Oct-12 12:30N 44°25' E 008°55'0 0.0
2018-Oct-12 12:02N 44°25' E 008°55'0 0.0
2018-Oct-12 11:59N 44°25' E 008°55'0 0.0
2018-Oct-12 11:29N 44°25' E 008°55'0 0.0
2018-Oct-12 11:02N 44°25' E 008°55'0 0.0
2018-Oct-12 10:59N 44°25' E 008°55'0 0.0
2018-Oct-12 10:28N 44°25' E 008°55'0 0.0
2018-Oct-12 10:01N 44°25' E 008°55'0 0.0
2018-Oct-12 09:58N 44°25' E 008°55'0 0.0
2018-Oct-12 09:28N 44°25' E 008°55'0 0.0
2018-Oct-12 08:58N 44°25' E 008°55'0 0.0
2018-Oct-12 08:28N 44°25' E 008°55'0 0.0
2018-Oct-12 08:00N 44°25' E 008°55'  
Track history (hours):
 
Tides and Currents Weather Stations Pressure Air Temp Water Temp Dewpoint Dewpoint Depression Visibility Wind Speed Wind Dir Waves Ship Positions

MSC Orchestra

Last reported at 2018-Oct-22 07:37 UTC. Time now 2018-Oct-22 22:33 UTC.
Position N 38°54' E 003°13'.

Length 294 m; draft 7.8 m.

Type: Ship. MMSI: 372497000.

Date/timePositionNaut miles runAvg speedWind from/ knotsBaromVisibWave heightAir tempDewpointWater temp
2018-Oct-22 07:37N 38°54' E 003°13'322.2
2018-Oct-22 07:30N 38°52' E 003°10'18921.5
2018-Oct-21 22:42N 37°16' W 000°17'2221.6
2018-Oct-21 21:42N 37°05' W 000°40'22510.6
2018-Oct-21 00:28N 36°04' W 005°11'717.0
2018-Oct-21 00:03N 36°01' W 005°18'119.5
2018-Oct-21 00:00N 36°00' W 005°19'1019.9
2018-Oct-20 23:30N 35°56' W 005°31'1320.5
2018-Oct-20 22:52N 35°54' W 005°46'921.4
2018-Oct-20 22:28N 35°53' W 005°57'1421.1
2018-Oct-20 21:49N 35°52' W 006°14'  
2018-Oct-18 16:10N 28°38' W 016°06'218.6
2018-Oct-18 16:02N 28°35' W 016°06'018.4
2018-Oct-18 16:00N 28°35' W 016°06'714.6
2018-Oct-18 15:30N 28°29' W 016°10'4 9.8
2018-Oct-18 15:03N 28°28' W 016°15'0 0.9
2018-Oct-18 15:00N 28°28' W 016°15'0 0.0
2018-Oct-18 14:29N 28°28' W 016°15'0 0.0
2018-Oct-18 13:59N 28°28' W 016°15'0 0.0
2018-Oct-18 13:29N 28°28' W 016°15'0 0.0
2018-Oct-18 13:01N 28°28' W 016°15'0 0.0
2018-Oct-18 12:58N 28°28' W 016°15'0 0.0
2018-Oct-18 12:28N 28°28' W 016°15'0 0.0
2018-Oct-18 12:01N 28°28' W 016°15'0 0.0
2018-Oct-18 11:55N 28°28' W 016°15'0 0.0
2018-Oct-18 11:28N 28°28' W 016°15'0 0.0
2018-Oct-18 11:01N 28°28' W 016°15'0 0.0
2018-Oct-18 10:30N 28°28' W 016°15'0 0.0
2018-Oct-18 09:57N 28°28' W 016°15'0 0.0
2018-Oct-18 09:30N 28°28' W 016°15'0 0.0
2018-Oct-18 08:57N 28°28' W 016°15'0 0.0
2018-Oct-18 08:29N 28°28' W 016°15'0 0.0
2018-Oct-18 08:02N 28°28' W 016°15'0 0.0
2018-Oct-18 07:56N 28°28' W 016°15'0 0.0
2018-Oct-18 07:29N 28°28' W 016°15'0 0.0
2018-Oct-18 07:02N 28°28' W 016°15'0 0.0
2018-Oct-18 06:59N 28°28' W 016°15'0 0.0
2018-Oct-18 06:31N 28°28' W 016°15'1 2.4
2018-Oct-18 06:03N 28°29' W 016°13'0 7.1
2018-Oct-18 06:01N 28°29' W 016°13'714.2
2018-Oct-18 05:30N 28°30' W 016°05'817.8
2018-Oct-18 05:03N 28°35' W 015°58'116.9
2018-Oct-18 05:00N 28°36' W 015°57'714.5
2018-Oct-18 04:30N 28°40' W 015°50'614.4
2018-Oct-18 04:03N 28°44' W 015°45'114.5
2018-Oct-18 04:00N 28°44' W 015°44'714.4
2018-Oct-18 03:30N 28°48' W 015°37'614.3
2018-Oct-18 03:03N 28°52' W 015°31'114.3
2018-Oct-18 03:00N 28°53' W 015°31'714.2
2018-Oct-18 02:30N 28°57' W 015°24'614.2
2018-Oct-18 02:03N 29°01' W 015°18'114.1
2018-Oct-18 02:00N 29°01' W 015°18'714.2
2018-Oct-18 01:30N 29°06' W 015°11'2214.4
2018-Oct-17 23:57N 29°19' W 014°51'714.2
2018-Oct-17 23:29N 29°23' W 014°45'2914.5
2018-Oct-17 21:28N 29°41' W 014°18'1317.7
2018-Oct-17 20:45N 29°48' W 014°06'717.6
2018-Oct-17 20:20N 29°53' W 013°60'1217.8
2018-Oct-17 19:39N 30°00' W 013°48'1217.7
2018-Oct-17 18:59N 30°07' W 013°37'53511.1
2018-Oct-15 18:39N 35°57' W 005°35'318.4
2018-Oct-15 18:30N 35°58' W 005°32'818.1
2018-Oct-15 18:03N 36°00' W 005°23'117.6
2018-Oct-15 18:00N 36°00' W 005°22'917.5
2018-Oct-15 17:30N 36°02' W 005°11'21219.4
2018-Oct-15 06:33N 37°16' W 001°03'120.9
2018-Oct-15 06:30N 37°16' W 001°02'1020.9
2018-Oct-15 06:02N 37°22' W 000°51'021.3
2018-Oct-15 06:00N 37°22' W 000°51'1121.3
2018-Oct-15 05:30N 37°29' W 000°41'1021.6
2018-Oct-15 05:03N 37°36' W 000°32'121.2
2018-Oct-15 05:00N 37°37' W 000°31'1121.3
2018-Oct-15 04:30N 37°46' W 000°24'1021.6
2018-Oct-15 04:03N 37°54' W 000°17'121.7
2018-Oct-15 04:00N 37°55' W 000°16'1121.7
2018-Oct-15 03:30N 38°04' W 000°09'19720.8
2018-Oct-14 18:02N 40°56' E 001°56'321.1
2018-Oct-14 17:53N 40°59' E 001°58'820.8
2018-Oct-14 17:30N 41°06' E 002°03'920.3
2018-Oct-14 17:03N 41°14' E 002°08'119.8
2018-Oct-14 17:00N 41°15' E 002°09'712.6
2018-Oct-14 16:29N 41°21' E 002°10'0 0.3
2018-Oct-14 16:03N 41°21' E 002°10'0 0.0
2018-Oct-14 15:54N 41°21' E 002°10'0 0.0
2018-Oct-14 15:30N 41°21' E 002°10'0 0.0
2018-Oct-14 14:57N 41°21' E 002°10'0 0.0
2018-Oct-14 14:02N 41°21' E 002°10'0 0.0
2018-Oct-14 13:56N 41°21' E 002°10'0 0.0
2018-Oct-14 13:26N 41°21' E 002°10'0 0.0
2018-Oct-14 13:02N 41°21' E 002°10'0 0.0
2018-Oct-14 12:56N 41°21' E 002°10'0 0.0
2018-Oct-14 12:26N 41°21' E 002°10'0 0.0
2018-Oct-14 12:01N 41°21' E 002°10'0 0.0
2018-Oct-14 11:52N 41°21' E 002°10'0 0.0
2018-Oct-14 11:28N 41°21' E 002°10'2 0.4
2018-Oct-14 05:33N 41°19' E 002°10'1 8.6
2018-Oct-14 05:29N 41°19' E 002°10'1211.5
2018-Oct-14 04:27N 41°20' E 002°26'714.4
2018-Oct-14 03:59N 41°24' E 002°34'15614.4
2018-Oct-13 17:06N 43°12' E 005°06'114.2
2018-Oct-13 17:00N 43°13' E 005°07'814.2
2018-Oct-13 16:27N 43°19' E 005°15'1 0.1
2018-Oct-13 04:59N 43°19' E 005°17'611.3
2018-Oct-13 04:30N 43°14' E 005°17'6612.5
2018-Oct-12 23:15N 43°05' E 006°46'314.7
2018-Oct-12 23:03N 43°06' E 006°49'114.6
2018-Oct-12 23:01N 43°06' E 006°50'714.7
2018-Oct-12 22:30N 43°10' E 006°59'714.8
2018-Oct-12 22:03N 43°13' E 007°07'115.1
2018-Oct-12 22:00N 43°13' E 007°08'815.1
2018-Oct-12 21:30N 43°16' E 007°17'715.4
2018-Oct-12 21:03N 43°20' E 007°26'115.2
2018-Oct-12 21:00N 43°20' E 007°27'815.1
2018-Oct-12 20:30N 43°24' E 007°36'715.1
2018-Oct-12 20:03N 43°27' E 007°44'118.1
2018-Oct-12 20:00N 43°27' E 007°45'918.1
2018-Oct-12 19:31N 43°31' E 007°56'818.2
2018-Oct-12 19:04N 43°36' E 008°06'118.5
2018-Oct-12 19:01N 43°36' E 008°07'918.5
2018-Oct-12 18:30N 43°42' E 008°17'818.6
2018-Oct-12 18:03N 43°49' E 008°24'118.8
2018-Oct-12 18:01N 43°49' E 008°25'918.6
2018-Oct-12 17:31N 43°57' E 008°32'818.1
2018-Oct-12 17:03N 44°04' E 008°38'117.9
2018-Oct-12 17:00N 44°05' E 008°39'918.3
2018-Oct-12 16:30N 44°12' E 008°46'818.5
2018-Oct-12 16:03N 44°19' E 008°53'118.2
2018-Oct-12 16:00N 44°20' E 008°54'510.0
2018-Oct-12 15:30N 44°25' E 008°55'0 0.1
2018-Oct-12 15:01N 44°25' E 008°55'0 0.0
2018-Oct-12 14:58N 44°25' E 008°55'0 0.0
2018-Oct-12 14:28N 44°25' E 008°55'0 0.0
2018-Oct-12 13:58N 44°25' E 008°55'0 0.0
2018-Oct-12 13:27N 44°25' E 008°55'0 0.0
2018-Oct-12 13:03N 44°25' E 008°55'0 0.0
2018-Oct-12 13:00N 44°25' E 008°55'0 0.0
2018-Oct-12 12:30N 44°25' E 008°55'0 0.0
2018-Oct-12 12:02N 44°25' E 008°55'0 0.0
2018-Oct-12 11:59N 44°25' E 008°55'0 0.0
2018-Oct-12 11:29N 44°25' E 008°55'0 0.0
2018-Oct-12 11:02N 44°25' E 008°55'0 0.0
2018-Oct-12 10:59N 44°25' E 008°55'0 0.0
2018-Oct-12 10:28N 44°25' E 008°55'0 0.0
2018-Oct-12 10:01N 44°25' E 008°55'0 0.0
2018-Oct-12 09:58N 44°25' E 008°55'0 0.0
2018-Oct-12 09:28N 44°25' E 008°55'0 0.0
2018-Oct-12 08:58N 44°25' E 008°55'0 0.0
2018-Oct-12 08:28N 44°25' E 008°55'0 0.0
2018-Oct-12 08:00N 44°25' E 008°55'  

Dump ship's entire track history